createdAt,value
2023-04-30T00:01:39.938Z,100.00
2023-04-30T00:04:09.987Z,100.00
2023-04-30T00:06:40.079Z,100.00
2023-04-30T00:09:10.202Z,100.00
2023-04-30T00:11:40.974Z,100.00
2023-04-30T00:14:10.583Z,100.00
2023-04-30T00:16:40.148Z,100.00
2023-04-30T00:19:10.396Z,100.00
2023-04-30T00:21:39.390Z,100.00
2023-04-30T00:24:09.342Z,100.00
2023-04-30T00:26:40.758Z,100.00
2023-04-30T00:29:10.666Z,100.00
2023-04-30T00:31:39.307Z,100.00
2023-04-30T00:34:08.475Z,100.00
2023-04-30T00:36:38.433Z,100.00
2023-04-30T00:39:08.025Z,100.00
2023-04-30T00:41:40.232Z,100.00
2023-04-30T00:44:10.089Z,100.00
2023-04-30T00:46:40.531Z,100.00
2023-04-30T00:49:10.644Z,100.00
2023-04-30T00:51:44.135Z,100.00
2023-04-30T00:54:13.958Z,100.00
2023-04-30T00:56:45.017Z,100.00
2023-04-30T00:59:16.424Z,100.00
2023-04-30T01:01:46.186Z,100.00
2023-04-30T01:04:16.412Z,100.00
2023-04-30T01:06:46.696Z,100.00
2023-04-30T01:09:16.868Z,100.00
2023-04-30T01:12:04.508Z,100.00
2023-04-30T01:14:50.778Z,100.00
2023-04-30T01:17:30.063Z,100.00
2023-04-30T01:20:03.620Z,100.00
2023-04-30T01:22:45.393Z,100.00
2023-04-30T01:25:53.833Z,100.00
2023-04-30T01:28:26.777Z,100.00
2023-04-30T01:30:56.747Z,100.00
2023-04-30T01:33:27.253Z,100.00
2023-04-30T01:36:36.721Z,100.00
2023-04-30T01:39:27.611Z,100.00
2023-04-30T01:42:10.025Z,100.00
2023-04-30T01:45:04.265Z,100.00
2023-04-30T01:47:41.609Z,100.00
2023-04-30T01:50:29.626Z,100.00
2023-04-30T01:53:03.346Z,100.00
2023-04-30T01:55:43.149Z,100.00
2023-04-30T01:58:16.960Z,100.00
2023-04-30T02:00:48.987Z,100.00
2023-04-30T02:03:19.197Z,100.00
2023-04-30T02:05:49.476Z,100.00
2023-04-30T02:08:20.100Z,100.00
2023-04-30T02:10:49.772Z,100.00
2023-04-30T02:13:19.730Z,100.00
2023-04-30T02:15:52.283Z,100.00
2023-04-30T02:18:23.044Z,100.00
2023-04-30T02:20:53.534Z,100.00
2023-04-30T02:23:24.051Z,100.00
2023-04-30T02:25:54.558Z,100.00
2023-04-30T02:28:25.019Z,100.00
2023-04-30T02:30:56.666Z,100.00
2023-04-30T02:33:27.376Z,100.00
2023-04-30T02:35:57.770Z,100.00
2023-04-30T02:38:27.762Z,100.00
2023-04-30T02:40:57.680Z,100.00
2023-04-30T02:43:27.305Z,100.00
2023-04-30T02:45:58.705Z,100.00
2023-04-30T02:48:29.350Z,100.00
2023-04-30T02:50:59.786Z,100.00
2023-04-30T02:53:29.938Z,100.00
2023-04-30T02:56:00.693Z,100.00
2023-04-30T02:58:31.134Z,100.00
2023-04-30T03:01:02.549Z,100.00
2023-04-30T03:03:33.112Z,100.00
2023-04-30T03:06:02.891Z,100.00
2023-04-30T03:08:32.989Z,100.00
2023-04-30T03:11:02.715Z,100.00
2023-04-30T03:13:31.530Z,100.00
2023-04-30T03:16:05.374Z,100.00
2023-04-30T03:18:35.017Z,100.00
2023-04-30T03:21:04.975Z,100.00
2023-04-30T03:23:34.420Z,100.00
2023-04-30T03:26:04.313Z,100.00
2023-04-30T03:28:34.222Z,100.00
2023-04-30T03:31:06.996Z,100.00
2023-04-30T03:33:37.311Z,100.00
2023-04-30T03:36:09.996Z,100.00
2023-04-30T03:38:40.387Z,100.00
2023-04-30T03:41:10.810Z,100.00
2023-04-30T03:43:41.714Z,100.00
2023-04-30T03:46:12.686Z,100.00
2023-04-30T03:48:42.880Z,100.00
2023-04-30T03:51:13.015Z,100.00
2023-04-30T03:53:43.574Z,100.00
2023-04-30T03:56:14.563Z,100.00
2023-04-30T03:58:45.163Z,100.00
2023-04-30T04:01:16.876Z,100.00
2023-04-30T04:03:46.873Z,100.00
2023-04-30T04:06:15.952Z,100.00
2023-04-30T04:08:46.017Z,100.00
2023-04-30T04:11:15.772Z,100.00
2023-04-30T04:13:45.273Z,100.00
2023-04-30T04:16:16.225Z,100.00
2023-04-30T04:18:46.711Z,100.00
2023-04-30T04:21:18.006Z,100.00
2023-04-30T04:23:47.966Z,100.00
2023-04-30T04:26:20.323Z,100.00
2023-04-30T04:28:50.886Z,100.00
2023-04-30T04:31:23.205Z,100.00
2023-04-30T04:33:58.185Z,100.00
2023-04-30T04:36:29.292Z,100.00
2023-04-30T04:39:02.523Z,100.00
2023-04-30T04:41:32.731Z,100.00
2023-04-30T04:44:04.157Z,100.00
2023-04-30T04:46:39.166Z,100.00
2023-04-30T04:49:10.282Z,100.00
2023-04-30T04:51:41.339Z,100.00
2023-04-30T04:54:12.130Z,100.00
2023-04-30T04:56:43.557Z,100.00
2023-04-30T04:59:13.069Z,100.00
2023-04-30T05:01:44.033Z,100.00
2023-04-30T05:04:14.668Z,100.00
2023-04-30T05:06:44.708Z,100.00
2023-04-30T05:09:15.744Z,100.00
2023-04-30T05:11:46.867Z,100.00
2023-04-30T05:14:17.002Z,100.00
2023-04-30T05:16:49.299Z,100.00
2023-04-30T05:19:20.289Z,100.00
2023-04-30T05:21:50.809Z,100.00
2023-04-30T05:24:20.790Z,100.00
2023-04-30T05:26:50.098Z,100.00
2023-04-30T05:29:20.009Z,100.00
2023-04-30T05:31:51.929Z,100.00
2023-04-30T05:34:21.875Z,100.00
2023-04-30T05:36:52.310Z,100.00
2023-04-30T05:39:22.633Z,100.00
2023-04-30T05:41:53.499Z,100.00
2023-04-30T05:44:24.006Z,100.00
2023-04-30T05:46:55.962Z,100.00
2023-04-30T05:49:25.717Z,100.00
2023-04-30T05:51:55.795Z,100.00
2023-04-30T05:54:26.109Z,100.00
2023-04-30T05:56:58.514Z,100.00
2023-04-30T05:59:27.386Z,100.00
2023-04-30T06:02:00.342Z,100.00
2023-04-30T06:04:29.934Z,100.00
2023-04-30T06:07:00.647Z,100.00
2023-04-30T06:09:30.960Z,100.00
2023-04-30T06:12:03.141Z,100.00
2023-04-30T06:14:33.994Z,100.00
2023-04-30T06:17:05.999Z,100.00
2023-04-30T06:19:36.865Z,100.00
2023-04-30T06:22:07.146Z,100.00
2023-04-30T06:24:36.266Z,100.00
2023-04-30T06:27:07.504Z,100.00
2023-04-30T06:29:37.723Z,100.00
2023-04-30T06:32:09.524Z,100.00
2023-04-30T06:34:40.570Z,100.00
2023-04-30T06:37:13.184Z,100.00
2023-04-30T06:39:42.348Z,100.00
2023-04-30T06:42:12.043Z,100.00
2023-04-30T06:44:43.018Z,100.00
2023-04-30T06:47:13.597Z,100.00
2023-04-30T06:49:44.039Z,100.00
2023-04-30T06:52:14.169Z,100.00
2023-04-30T06:54:43.923Z,100.00
2023-04-30T06:57:14.681Z,100.00
2023-04-30T06:59:45.124Z,100.00
2023-04-30T07:02:16.741Z,100.00
2023-04-30T07:04:46.395Z,100.00
2023-04-30T07:07:16.804Z,100.00
2023-04-30T07:09:50.326Z,100.00
2023-04-30T07:12:23.150Z,100.00
2023-04-30T07:14:52.645Z,100.00
2023-04-30T07:17:24.194Z,100.00
2023-04-30T07:19:56.079Z,100.00
2023-04-30T07:22:25.407Z,100.00
2023-04-30T07:24:56.690Z,100.00
2023-04-30T07:27:25.336Z,100.00
2023-04-30T07:29:56.327Z,100.00
2023-04-30T07:32:28.122Z,100.00
2023-04-30T07:34:58.725Z,100.00
2023-04-30T07:37:29.054Z,100.00
2023-04-30T07:39:58.618Z,100.00
2023-04-30T07:42:28.199Z,100.00
2023-04-30T07:44:56.898Z,100.00
2023-04-30T07:47:28.445Z,100.00
2023-04-30T07:49:59.090Z,100.00
2023-04-30T07:52:28.670Z,100.00
2023-04-30T07:54:57.646Z,100.00
2023-04-30T07:57:28.358Z,100.00
2023-04-30T07:59:58.560Z,100.00
2023-04-30T08:02:29.222Z,100.00
2023-04-30T08:04:59.369Z,100.00
2023-04-30T08:07:29.037Z,100.00
2023-04-30T08:09:57.968Z,100.00
2023-04-30T08:12:27.120Z,100.00
2023-04-30T08:15:02.185Z,100.00
2023-04-30T08:17:33.578Z,100.00
2023-04-30T08:20:03.247Z,100.00
2023-04-30T08:22:33.974Z,100.00
2023-04-30T08:25:03.707Z,100.00
2023-04-30T08:27:33.935Z,100.00
2023-04-30T08:30:03.883Z,100.00
2023-04-30T08:32:38.875Z,100.00
2023-04-30T08:35:09.753Z,100.00
2023-04-30T08:37:38.735Z,100.00
2023-04-30T08:40:12.740Z,100.00
2023-04-30T08:42:52.876Z,100.00
2023-04-30T08:45:24.414Z,100.00
2023-04-30T08:47:55.859Z,100.00
2023-04-30T08:50:24.810Z,100.00
2023-04-30T08:52:53.289Z,100.00
2023-04-30T08:55:23.045Z,100.00
2023-04-30T08:57:52.444Z,100.00
2023-04-30T09:00:21.135Z,100.00
2023-04-30T09:02:54.612Z,100.00
2023-04-30T09:05:23.652Z,100.00
2023-04-30T09:08:02.964Z,100.00
2023-04-30T09:10:35.144Z,100.00
2023-04-30T09:13:07.673Z,100.00
2023-04-30T09:15:38.760Z,96.68
2023-04-30T09:18:18.045Z,98.39
2023-04-30T09:21:01.423Z,95.44
2023-04-30T09:23:32.235Z,94.91
2023-04-30T09:26:01.939Z,94.29
2023-04-30T09:28:32.327Z,95.66
2023-04-30T09:31:01.214Z,92.85
2023-04-30T09:33:47.894Z,90.21
2023-04-30T09:36:18.616Z,87.55
2023-04-30T09:38:49.061Z,89.59
2023-04-30T09:41:26.929Z,89.90
2023-04-30T09:43:55.887Z,91.68
2023-04-30T09:46:33.572Z,89.44
2023-04-30T09:49:07.325Z,88.42
2023-04-30T09:51:37.544Z,89.22
2023-04-30T09:54:13.778Z,89.30
2023-04-30T09:56:43.673Z,86.13
2023-04-30T09:59:15.664Z,86.93
2023-04-30T10:01:45.533Z,84.14
2023-04-30T10:04:16.803Z,84.52
2023-04-30T10:06:47.798Z,84.44
2023-04-30T10:09:18.466Z,84.96
2023-04-30T10:11:48.440Z,84.37
2023-04-30T10:14:21.606Z,82.55
2023-04-30T10:16:59.427Z,81.18
2023-04-30T10:19:38.050Z,81.48
2023-04-30T10:22:08.836Z,81.86
2023-04-30T10:24:39.125Z,81.49
2023-04-30T10:27:08.720Z,78.88
2023-04-30T10:29:38.051Z,78.85
2023-04-30T10:32:09.921Z,79.93
2023-04-30T10:34:55.072Z,78.10
2023-04-30T10:37:34.514Z,76.86
2023-04-30T10:40:05.278Z,77.26
2023-04-30T10:42:38.014Z,77.15
2023-04-30T10:45:11.733Z,76.47
2023-04-30T10:47:46.250Z,76.90
2023-04-30T10:50:18.085Z,75.54
2023-04-30T10:52:47.682Z,75.43
2023-04-30T10:55:19.537Z,74.48
2023-04-30T10:57:51.587Z,71.86
2023-04-30T11:00:26.408Z,73.23
2023-04-30T11:03:04.047Z,72.78
2023-04-30T11:05:39.571Z,72.84
2023-04-30T11:08:13.189Z,73.01
2023-04-30T11:11:00.696Z,73.58
2023-04-30T11:13:29.628Z,71.07
2023-04-30T11:16:06.093Z,72.01
2023-04-30T11:18:34.889Z,72.72
2023-04-30T11:21:07.320Z,72.49
2023-04-30T11:23:41.599Z,73.85
2023-04-30T11:26:11.300Z,74.32
2023-04-30T11:28:40.102Z,71.33
2023-04-30T11:31:09.743Z,71.33
2023-04-30T11:33:42.097Z,72.66
2023-04-30T11:36:12.510Z,71.29
2023-04-30T11:38:43.383Z,70.61
2023-04-30T11:41:15.049Z,70.45
2023-04-30T11:43:45.577Z,70.20
2023-04-30T11:46:19.025Z,71.00
2023-04-30T11:48:49.817Z,70.25
2023-04-30T11:51:23.135Z,69.40
2023-04-30T11:53:53.732Z,70.27
2023-04-30T11:56:25.394Z,70.42
2023-04-30T11:58:57.392Z,71.80
2023-04-30T12:01:29.549Z,71.10
2023-04-30T12:03:59.570Z,68.23
2023-04-30T12:06:32.610Z,66.26
2023-04-30T12:09:08.368Z,68.46
2023-04-30T12:11:38.298Z,66.53
2023-04-30T12:14:10.791Z,66.73
2023-04-30T12:16:49.263Z,67.20
2023-04-30T12:19:21.312Z,67.01
2023-04-30T12:21:55.026Z,66.94
2023-04-30T12:24:28.828Z,66.78
2023-04-30T12:27:01.981Z,68.45
2023-04-30T12:29:31.147Z,67.57
2023-04-30T12:32:02.472Z,66.07
2023-04-30T12:34:33.833Z,66.18
2023-04-30T12:37:05.500Z,67.27
2023-04-30T12:39:36.644Z,67.00
2023-04-30T12:42:06.881Z,67.04
2023-04-30T12:44:45.733Z,66.46
2023-04-30T12:47:16.233Z,65.79
2023-04-30T12:49:48.264Z,65.28
2023-04-30T12:52:18.681Z,65.07
2023-04-30T12:54:48.158Z,67.71
2023-04-30T12:57:17.681Z,66.27
2023-04-30T13:00:01.509Z,66.27
2023-04-30T13:02:32.792Z,66.57
2023-04-30T13:05:03.068Z,68.77
2023-04-30T13:07:41.325Z,67.73
2023-04-30T13:10:14.431Z,67.91
2023-04-30T13:12:44.957Z,66.64
2023-04-30T13:15:14.498Z,67.43
2023-04-30T13:17:45.366Z,65.73
2023-04-30T13:20:16.844Z,65.95
2023-04-30T13:22:47.653Z,65.44
2023-04-30T13:25:17.512Z,66.74
2023-04-30T13:27:46.324Z,65.33
2023-04-30T13:30:16.402Z,65.68
2023-04-30T13:32:46.729Z,67.38
2023-04-30T13:35:16.337Z,66.45
2023-04-30T13:37:48.138Z,64.97
2023-04-30T13:40:17.714Z,65.24
2023-04-30T13:42:48.897Z,62.39
2023-04-30T13:45:17.987Z,63.24
2023-04-30T13:47:47.965Z,62.66
2023-04-30T13:50:18.172Z,62.89
2023-04-30T13:52:49.378Z,62.68
2023-04-30T13:55:18.760Z,62.08
2023-04-30T13:57:48.223Z,61.15
2023-04-30T14:00:22.167Z,61.98
2023-04-30T14:02:52.892Z,60.44
2023-04-30T14:05:23.067Z,58.45
2023-04-30T14:07:55.038Z,60.04
2023-04-30T14:10:25.035Z,60.99
2023-04-30T14:12:56.039Z,60.12
2023-04-30T14:15:25.830Z,59.94
2023-04-30T14:17:55.907Z,59.00
2023-04-30T14:20:26.730Z,59.50
2023-04-30T14:22:59.418Z,60.39
2023-04-30T14:25:31.078Z,60.97
2023-04-30T14:28:01.397Z,60.92
2023-04-30T14:30:33.512Z,60.18
2023-04-30T14:33:03.223Z,59.48
2023-04-30T14:35:34.127Z,60.36
2023-04-30T14:38:06.163Z,58.82
2023-04-30T14:40:36.273Z,57.43
2023-04-30T14:43:08.725Z,56.60
2023-04-30T14:45:38.867Z,56.75
2023-04-30T14:48:10.201Z,56.33
2023-04-30T14:50:39.987Z,58.46
2023-04-30T14:53:12.102Z,56.54
2023-04-30T14:55:41.572Z,56.21
2023-04-30T14:58:12.056Z,55.11
2023-04-30T15:00:40.987Z,55.38
2023-04-30T15:03:12.088Z,55.00
2023-04-30T15:05:43.034Z,54.52
2023-04-30T15:08:13.424Z,55.11
2023-04-30T15:10:43.008Z,55.80
2023-04-30T15:13:14.237Z,55.66
2023-04-30T15:15:47.630Z,56.58
2023-04-30T15:18:16.765Z,56.47
2023-04-30T15:20:47.215Z,56.00
2023-04-30T15:23:18.612Z,56.39
2023-04-30T15:25:48.167Z,56.19
2023-04-30T15:28:17.410Z,56.39
2023-04-30T15:30:47.278Z,56.50
2023-04-30T15:33:19.343Z,57.70
2023-04-30T15:35:49.922Z,57.52
2023-04-30T15:38:21.886Z,56.76
2023-04-30T15:40:51.947Z,57.33
2023-04-30T15:43:23.975Z,56.00
2023-04-30T15:45:52.963Z,56.09
2023-04-30T15:48:22.356Z,55.49
2023-04-30T15:50:52.532Z,56.74
2023-04-30T15:53:23.429Z,55.53
2023-04-30T15:55:53.320Z,55.84
2023-04-30T15:58:23.503Z,57.00
2023-04-30T16:00:52.602Z,56.45
2023-04-30T16:03:22.279Z,56.81
2023-04-30T16:05:52.474Z,56.13
2023-04-30T16:08:22.809Z,55.57
2023-04-30T16:10:52.849Z,56.13
2023-04-30T16:13:22.231Z,56.03
2023-04-30T16:15:52.664Z,56.62
2023-04-30T16:18:23.608Z,56.35
2023-04-30T16:20:53.011Z,56.96
2023-04-30T16:23:23.433Z,57.58
2023-04-30T16:25:53.401Z,57.09
2023-04-30T16:28:24.495Z,56.69
2023-04-30T16:30:54.181Z,57.17
2023-04-30T16:33:25.183Z,56.86
2023-04-30T16:35:55.853Z,56.89
2023-04-30T16:38:27.767Z,57.35
2023-04-30T16:40:57.284Z,57.68
2023-04-30T16:43:27.367Z,58.10
2023-04-30T16:45:57.031Z,58.35
2023-04-30T16:48:27.211Z,58.38
2023-04-30T16:50:57.135Z,58.59
2023-04-30T16:53:28.444Z,61.87
2023-04-30T16:55:57.006Z,60.15
2023-04-30T16:58:27.137Z,59.28
2023-04-30T17:00:57.532Z,58.29
2023-04-30T17:03:26.358Z,58.68
2023-04-30T17:05:56.164Z,57.87
2023-04-30T17:08:27.116Z,58.69
2023-04-30T17:10:56.783Z,62.60
2023-04-30T17:13:26.337Z,60.43
2023-04-30T17:16:01.703Z,58.49
2023-04-30T17:18:31.994Z,59.42
2023-04-30T17:21:01.012Z,58.97
2023-04-30T17:23:32.495Z,60.24
2023-04-30T17:26:02.079Z,61.99
2023-04-30T17:28:30.465Z,67.08
2023-04-30T17:31:03.881Z,66.06
2023-04-30T17:33:33.326Z,65.18
2023-04-30T17:36:02.800Z,64.29
2023-04-30T17:38:32.591Z,64.27
2023-04-30T17:41:02.499Z,61.49
2023-04-30T17:43:32.702Z,65.00
2023-04-30T17:46:02.911Z,67.02
2023-04-30T17:48:32.348Z,64.74
2023-04-30T17:51:02.338Z,65.50
2023-04-30T17:53:33.389Z,66.83
2023-04-30T17:56:03.723Z,69.19
2023-04-30T17:58:33.343Z,70.00
2023-04-30T18:01:03.646Z,69.43
2023-04-30T18:03:33.972Z,69.85
2023-04-30T18:06:04.247Z,69.08
2023-04-30T18:08:35.135Z,65.95
2023-04-30T18:11:04.156Z,64.74
2023-04-30T18:13:33.096Z,67.10
2023-04-30T18:16:02.219Z,68.66
2023-04-30T18:18:32.273Z,69.77
2023-04-30T18:21:01.787Z,70.34
2023-04-30T18:23:31.784Z,71.38
2023-04-30T18:26:03.100Z,72.47
2023-04-30T18:28:33.991Z,75.03
2023-04-30T18:31:03.445Z,76.74
2023-04-30T18:33:32.992Z,79.00
2023-04-30T18:36:05.586Z,80.24
2023-04-30T18:38:35.736Z,81.32
2023-04-30T18:41:08.202Z,82.65
2023-04-30T18:43:40.554Z,83.67
2023-04-30T18:46:10.727Z,84.69
2023-04-30T18:48:41.082Z,86.17
2023-04-30T18:51:10.088Z,87.41
2023-04-30T18:53:39.055Z,88.39
2023-04-30T18:56:10.912Z,89.11
2023-04-30T18:58:41.340Z,89.98
2023-04-30T19:01:11.043Z,91.06
2023-04-30T19:03:42.041Z,92.58
2023-04-30T19:06:11.800Z,92.89
2023-04-30T19:08:45.586Z,93.62
2023-04-30T19:11:19.120Z,94.81
2023-04-30T19:13:49.103Z,93.79
2023-04-30T19:16:18.685Z,94.74
2023-04-30T19:18:47.585Z,96.13
2023-04-30T19:21:18.176Z,98.10
2023-04-30T19:23:47.309Z,99.58
2023-04-30T19:26:18.222Z,98.98
2023-04-30T19:28:48.975Z,98.86
2023-04-30T19:31:18.681Z,99.17
2023-04-30T19:33:48.164Z,99.63
2023-04-30T19:36:19.259Z,100.00
2023-04-30T19:38:48.690Z,100.00
2023-04-30T19:41:18.993Z,100.00
2023-04-30T19:43:47.951Z,100.00
2023-04-30T19:46:17.344Z,100.00
2023-04-30T19:48:47.605Z,100.00
2023-04-30T19:51:17.269Z,100.00
2023-04-30T19:53:47.845Z,100.00
2023-04-30T19:56:19.290Z,100.00
2023-04-30T19:58:49.065Z,100.00
2023-04-30T20:01:19.599Z,100.00
2023-04-30T20:03:50.284Z,100.00
2023-04-30T20:06:20.596Z,100.00
2023-04-30T20:08:49.443Z,100.00
2023-04-30T20:11:23.392Z,100.00
2023-04-30T20:13:51.930Z,100.00
2023-04-30T20:16:22.438Z,100.00
2023-04-30T20:18:51.465Z,100.00
2023-04-30T20:21:25.077Z,100.00
2023-04-30T20:23:55.200Z,100.00
2023-04-30T20:26:27.382Z,100.00
2023-04-30T20:28:57.433Z,100.00
2023-04-30T20:31:31.707Z,100.00
2023-04-30T20:34:02.291Z,100.00
2023-04-30T20:36:32.880Z,100.00
2023-04-30T20:39:01.823Z,100.00
2023-04-30T20:41:33.003Z,100.00
2023-04-30T20:44:02.060Z,100.00
2023-04-30T20:46:32.833Z,100.00
2023-04-30T20:49:05.762Z,100.00
2023-04-30T20:51:34.664Z,100.00
2023-04-30T20:54:03.850Z,100.00
2023-04-30T20:56:34.273Z,100.00
2023-04-30T20:59:05.347Z,100.00
2023-04-30T21:01:34.472Z,100.00
2023-04-30T21:04:05.271Z,100.00
2023-04-30T21:06:34.857Z,100.00
2023-04-30T21:09:04.615Z,100.00
2023-04-30T21:11:35.108Z,100.00
2023-04-30T21:14:04.715Z,100.00
2023-04-30T21:16:34.168Z,100.00
2023-04-30T21:19:04.342Z,100.00
2023-04-30T21:21:34.424Z,100.00
2023-04-30T21:24:05.168Z,100.00
2023-04-30T21:26:35.539Z,100.00
2023-04-30T21:29:05.006Z,100.00
2023-04-30T21:31:34.871Z,100.00
2023-04-30T21:34:04.354Z,100.00
2023-04-30T21:36:35.806Z,100.00
2023-04-30T21:39:06.993Z,100.00
2023-04-30T21:41:39.628Z,100.00
2023-04-30T21:44:08.694Z,100.00
2023-04-30T21:46:38.678Z,100.00
2023-04-30T21:49:08.521Z,100.00
2023-04-30T21:51:38.369Z,100.00
2023-04-30T21:54:07.866Z,100.00
2023-04-30T21:56:40.357Z,100.00
2023-04-30T21:59:09.704Z,100.00
2023-04-30T22:01:38.941Z,100.00
2023-04-30T22:04:08.879Z,100.00
2023-04-30T22:06:37.872Z,100.00
2023-04-30T22:09:06.770Z,100.00
2023-04-30T22:11:37.075Z,100.00
2023-04-30T22:14:07.398Z,100.00
2023-04-30T22:16:36.886Z,100.00
2023-04-30T22:19:05.912Z,100.00
2023-04-30T22:21:34.925Z,100.00
2023-04-30T22:24:04.470Z,100.00
2023-04-30T22:26:34.533Z,100.00
2023-04-30T22:29:06.052Z,100.00
2023-04-30T22:31:36.026Z,100.00
2023-04-30T22:34:07.366Z,100.00
2023-04-30T22:36:37.133Z,100.00
2023-04-30T22:39:07.766Z,100.00
2023-04-30T22:41:38.548Z,100.00
2023-04-30T22:44:10.281Z,100.00
2023-04-30T22:46:40.641Z,100.00
2023-04-30T22:49:19.972Z,100.00
2023-04-30T22:51:57.214Z,100.00
2023-04-30T22:54:26.742Z,100.00
2023-04-30T22:56:56.021Z,100.00
2023-04-30T22:59:26.936Z,100.00
2023-04-30T23:01:57.792Z,100.00
2023-04-30T23:04:28.497Z,100.00
2023-04-30T23:06:57.233Z,100.00
2023-04-30T23:09:26.561Z,100.00
2023-04-30T23:11:57.902Z,100.00
2023-04-30T23:14:28.232Z,100.00
2023-04-30T23:16:58.170Z,100.00
2023-04-30T23:19:28.011Z,100.00
2023-04-30T23:21:57.544Z,100.00
2023-04-30T23:24:27.863Z,100.00
2023-04-30T23:26:57.799Z,100.00
2023-04-30T23:29:27.857Z,100.00
2023-04-30T23:31:56.854Z,100.00
2023-04-30T23:34:27.077Z,100.00
2023-04-30T23:36:56.692Z,100.00
2023-04-30T23:39:25.679Z,100.00
2023-04-30T23:41:56.213Z,100.00
2023-04-30T23:44:26.964Z,100.00
2023-04-30T23:46:57.020Z,100.00
2023-04-30T23:49:27.658Z,100.00
2023-04-30T23:51:58.432Z,100.00
2023-04-30T23:54:28.292Z,100.00
2023-04-30T23:56:59.428Z,100.00
2023-04-30T23:59:29.783Z,100.00
